Aviation Digital Data Service (ADDS)

Output produced by METARs form (0557 UTC 08 February 2016)
found at http://aviationweather.gov/adds/metars/
 
KHYA 080538Z 0806/0906 06015G25KT P6SM OVC030 
     FM080800 06019G30KT 2SM -RA OVC025 
     FM081000 05021G37KT 1SM -SN OVC020 
     FM081200 04023G43KT 1/4SM +SN OVC010 
     FM081400 04024G50KT 1/4SM +SN OVC010 
     FM081800 02025G49KT 1/2SM SN OVC010 
     FM090000 02016G34KT 2SM -SN OVC020 
     FM090300 01013G26KT 2SM -SHSN OVC015